sensor_id;sensor_type;location;lat;lon;timestamp;pressure;altitude;pressure_sealevel;temperature;humidity
61035;BME280;46916;40.564;-7.958;2023-12-22T00:01:41;98706.16;;;9.45;88.99
61035;BME280;46916;40.564;-7.958;2023-12-22T00:03:42;98696.81;;;9.41;89.00
61035;BME280;46916;40.564;-7.958;2023-12-22T00:05:43;98699.44;;;9.41;89.05
61035;BME280;46916;40.564;-7.958;2023-12-22T00:07:44;98687.47;;;9.37;89.26
61035;BME280;46916;40.564;-7.958;2023-12-22T00:09:45;98692.03;;;9.33;89.50
61035;BME280;46916;40.564;-7.958;2023-12-22T00:11:46;98690.53;;;9.29;89.43
61035;BME280;46916;40.564;-7.958;2023-12-22T00:13:46;98688.03;;;9.28;89.13
61035;BME280;46916;40.564;-7.958;2023-12-22T00:15:47;98686.16;;;9.30;89.28
61035;BME280;46916;40.564;-7.958;2023-12-22T00:17:48;98681.13;;;9.27;89.34
61035;BME280;46916;40.564;-7.958;2023-12-22T00:19:49;98685.88;;;9.20;89.73
61035;BME280;46916;40.564;-7.958;2023-12-22T00:21:49;98689.47;;;9.17;89.80
61035;BME280;46916;40.564;-7.958;2023-12-22T00:23:50;98682.47;;;9.18;90.24
61035;BME280;46916;40.564;-7.958;2023-12-22T00:25:51;98681.66;;;9.17;90.56
61035;BME280;46916;40.564;-7.958;2023-12-22T00:27:51;98685.31;;;9.15;90.66
61035;BME280;46916;40.564;-7.958;2023-12-22T00:29:52;98679.97;;;9.16;90.80
61035;BME280;46916;40.564;-7.958;2023-12-22T00:31:53;98692.09;;;9.17;90.88
61035;BME280;46916;40.564;-7.958;2023-12-22T00:33:54;98686.03;;;9.17;90.83
61035;BME280;46916;40.564;-7.958;2023-12-22T00:35:55;98684.34;;;9.16;90.92
61035;BME280;46916;40.564;-7.958;2023-12-22T00:37:55;98683.53;;;9.15;91.54
61035;BME280;46916;40.564;-7.958;2023-12-22T00:39:56;98692.94;;;9.18;90.92
61035;BME280;46916;40.564;-7.958;2023-12-22T00:41:57;98691.09;;;9.20;90.92
61035;BME280;46916;40.564;-7.958;2023-12-22T00:43:57;98692.75;;;9.21;90.60
61035;BME280;46916;40.564;-7.958;2023-12-22T00:45:58;98690.16;;;9.21;91.00
61035;BME280;46916;40.564;-7.958;2023-12-22T00:47:59;98704.06;;;9.22;90.69
61035;BME280;46916;40.564;-7.958;2023-12-22T00:50:01;98696.03;;;9.25;90.67
61035;BME280;46916;40.564;-7.958;2023-12-22T00:52:02;98689.88;;;9.26;90.68
61035;BME280;46916;40.564;-7.958;2023-12-22T00:54:03;98691.66;;;9.25;90.52
61035;BME280;46916;40.564;-7.958;2023-12-22T00:56:04;98683.16;;;9.22;90.60
61035;BME280;46916;40.564;-7.958;2023-12-22T00:58:06;98685.97;;;9.18;91.17
61035;BME280;46916;40.564;-7.958;2023-12-22T01:00:07;98684.47;;;9.14;91.05
61035;BME280;46916;40.564;-7.958;2023-12-22T01:02:11;98681.84;;;9.14;91.14
61035;BME280;46916;40.564;-7.958;2023-12-22T01:04:12;98685.19;;;9.16;90.83
61035;BME280;46916;40.564;-7.958;2023-12-22T01:06:12;98688.75;;;9.15;90.77
61035;BME280;46916;40.564;-7.958;2023-12-22T01:08:14;98686.22;;;9.14;90.97
61035;BME280;46916;40.564;-7.958;2023-12-22T01:10:15;98689.03;;;9.11;91.17
61035;BME280;46916;40.564;-7.958;2023-12-22T01:12:16;98679.75;;;9.05;91.46
61035;BME280;46916;40.564;-7.958;2023-12-22T01:14:16;98679.19;;;9.00;91.81
61035;BME280;46916;40.564;-7.958;2023-12-22T01:16:17;98674.91;;;8.99;91.62
61035;BME280;46916;40.564;-7.958;2023-12-22T01:18:22;98668.56;;;9.03;92.38
61035;BME280;46916;40.564;-7.958;2023-12-22T01:20:22;98669.44;;;8.88;93.12
61035;BME280;46916;40.564;-7.958;2023-12-22T01:22:23;98660.88;;;8.86;94.44
61035;BME280;46916;40.564;-7.958;2023-12-22T01:24:24;98658.25;;;8.86;94.54
61035;BME280;46916;40.564;-7.958;2023-12-22T01:26:24;98656.03;;;8.94;93.90
61035;BME280;46916;40.564;-7.958;2023-12-22T01:28:25;98653.94;;;8.85;93.93
61035;BME280;46916;40.564;-7.958;2023-12-22T01:30:26;98656.09;;;8.78;94.49
61035;BME280;46916;40.564;-7.958;2023-12-22T01:32:27;98651.38;;;8.69;94.68
61035;BME280;46916;40.564;-7.958;2023-12-22T01:34:33;98648.03;;;8.67;94.87
61035;BME280;46916;40.564;-7.958;2023-12-22T01:36:34;98647.91;;;8.68;94.64
61035;BME280;46916;40.564;-7.958;2023-12-22T01:38:35;98646.91;;;8.71;94.71
61035;BME280;46916;40.564;-7.958;2023-12-22T01:40:35;98648.41;;;8.75;94.51
61035;BME280;46916;40.564;-7.958;2023-12-22T01:42:36;98648.16;;;8.80;94.23
61035;BME280;46916;40.564;-7.958;2023-12-22T01:44:37;98639.22;;;8.84;94.12
61035;BME280;46916;40.564;-7.958;2023-12-22T01:46:38;98648.53;;;8.88;93.98
61035;BME280;46916;40.564;-7.958;2023-12-22T01:48:39;98640.53;;;8.91;93.70
61035;BME280;46916;40.564;-7.958;2023-12-22T01:50:40;98641.19;;;8.95;93.79
61035;BME280;46916;40.564;-7.958;2023-12-22T01:52:42;98638.59;;;8.95;94.24
61035;BME280;46916;40.564;-7.958;2023-12-22T01:54:44;98626.34;;;8.95;94.23
61035;BME280;46916;40.564;-7.958;2023-12-22T01:56:45;98631.75;;;8.92;94.64
61035;BME280;46916;40.564;-7.958;2023-12-22T01:58:46;98624.69;;;8.94;94.55
61035;BME280;46916;40.564;-7.958;2023-12-22T02:00:53;98625.53;;;8.95;94.71
61035;BME280;46916;40.564;-7.958;2023-12-22T02:02:55;98616.75;;;8.96;94.86
61035;BME280;46916;40.564;-7.958;2023-12-22T02:04:57;98618.41;;;8.97;94.88
61035;BME280;46916;40.564;-7.958;2023-12-22T02:07:01;98623.75;;;8.95;94.72
61035;BME280;46916;40.564;-7.958;2023-12-22T02:09:02;98630.81;;;8.93;94.93
61035;BME280;46916;40.564;-7.958;2023-12-22T02:11:04;98624.59;;;8.96;94.75
61035;BME280;46916;40.564;-7.958;2023-12-22T02:13:05;98629.63;;;8.99;94.48
61035;BME280;46916;40.564;-7.958;2023-12-22T02:15:06;98625.97;;;9.01;94.50
61035;BME280;46916;40.564;-7.958;2023-12-22T02:17:14;98618.25;;;9.00;94.54
61035;BME280;46916;40.564;-7.958;2023-12-22T02:24:02;98617.31;;;9.01;94.75
61035;BME280;46916;40.564;-7.958;2023-12-22T02:26:08;98618.81;;;9.05;94.79
61035;BME280;46916;40.564;-7.958;2023-12-22T02:28:14;98616.97;;;9.07;94.19
61035;BME280;46916;40.564;-7.958;2023-12-22T02:32:28;98615.09;;;9.09;94.44
61035;BME280;46916;40.564;-7.958;2023-12-22T02:34:31;98616.75;;;9.10;94.00
61035;BME280;46916;40.564;-7.958;2023-12-22T02:36:36;98619.19;;;9.13;94.03
61035;BME280;46916;40.564;-7.958;2023-12-22T02:38:39;98620.88;;;9.14;93.80
61035;BME280;46916;40.564;-7.958;2023-12-22T02:40:41;98633.03;;;9.15;93.49
61035;BME280;46916;40.564;-7.958;2023-12-22T02:42:42;98621.72;;;9.14;93.61
61035;BME280;46916;40.564;-7.958;2023-12-22T02:44:43;98624.34;;;9.14;93.46
61035;BME280;46916;40.564;-7.958;2023-12-22T02:46:44;98625.25;;;9.13;93.17
61035;BME280;46916;40.564;-7.958;2023-12-22T02:48:44;98620.13;;;9.12;92.99
61035;BME280;46916;40.564;-7.958;2023-12-22T02:50:46;98619.28;;;9.11;93.00
61035;BME280;46916;40.564;-7.958;2023-12-22T02:52:47;98617.63;;;9.10;92.79
61035;BME280;46916;40.564;-7.958;2023-12-22T02:54:48;98624.53;;;9.11;92.92
61035;BME280;46916;40.564;-7.958;2023-12-22T02:56:48;98623.75;;;9.09;92.58
61035;BME280;46916;40.564;-7.958;2023-12-22T02:58:49;98619.66;;;9.05;92.66
61035;BME280;46916;40.564;-7.958;2023-12-22T03:00:50;98613.84;;;9.00;92.40
61035;BME280;46916;40.564;-7.958;2023-12-22T03:02:50;98614.97;;;8.96;92.56
61035;BME280;46916;40.564;-7.958;2023-12-22T03:04:51;98608.25;;;8.92;92.59
61035;BME280;46916;40.564;-7.958;2023-12-22T03:06:52;98608.25;;;8.92;92.65
61035;BME280;46916;40.564;-7.958;2023-12-22T03:08:53;98601.25;;;8.92;92.69
61035;BME280;46916;40.564;-7.958;2023-12-22T03:10:53;98606.41;;;8.94;92.66
61035;BME280;46916;40.564;-7.958;2023-12-22T03:12:54;98600.22;;;8.95;92.58
61035;BME280;46916;40.564;-7.958;2023-12-22T03:14:55;98597.44;;;8.98;92.30
61035;BME280;46916;40.564;-7.958;2023-12-22T03:16:56;98586.88;;;9.00;92.18
61035;BME280;46916;40.564;-7.958;2023-12-22T03:18:57;98588.56;;;9.01;91.27
61035;BME280;46916;40.564;-7.958;2023-12-22T03:20:57;98585.13;;;9.00;91.29
61035;BME280;46916;40.564;-7.958;2023-12-22T03:22:58;98582.59;;;8.99;91.36
61035;BME280;46916;40.564;-7.958;2023-12-22T03:24:58;98581.78;;;8.98;91.16
61035;BME280;46916;40.564;-7.958;2023-12-22T03:26:59;98584.44;;;8.97;91.28
61035;BME280;46916;40.564;-7.958;2023-12-22T03:29:00;98581.09;;;8.95;91.03
61035;BME280;46916;40.564;-7.958;2023-12-22T03:31:01;98589.00;;;8.93;91.11
61035;BME280;46916;40.564;-7.958;2023-12-22T03:33:01;98585.66;;;8.91;91.17
61035;BME280;46916;40.564;-7.958;2023-12-22T03:35:02;98586.59;;;8.90;91.40
61035;BME280;46916;40.564;-7.958;2023-12-22T03:37:03;98585.94;;;8.86;91.52
61035;BME280;46916;40.564;-7.958;2023-12-22T03:39:04;98585.94;;;8.86;91.24
61035;BME280;46916;40.564;-7.958;2023-12-22T03:41:05;98576.50;;;8.84;91.01
61035;BME280;46916;40.564;-7.958;2023-12-22T03:43:05;98578.56;;;8.79;90.87
61035;BME280;46916;40.564;-7.958;2023-12-22T03:45:07;98576.41;;;8.71;90.59
61035;BME280;46916;40.564;-7.958;2023-12-22T03:47:07;98575.84;;;8.66;90.61
61035;BME280;46916;40.564;-7.958;2023-12-22T03:49:08;98574.59;;;8.57;91.20
61035;BME280;46916;40.564;-7.958;2023-12-22T03:51:09;98573.28;;;8.50;90.94
61035;BME280;46916;40.564;-7.958;2023-12-22T03:53:12;98567.66;;;8.42;91.39
61035;BME280;46916;40.564;-7.958;2023-12-22T03:55:13;98566.28;;;8.35;91.85
61035;BME280;46916;40.564;-7.958;2023-12-22T03:57:13;98573.72;;;8.27;92.22
61035;BME280;46916;40.564;-7.958;2023-12-22T03:59:14;98569.50;;;8.24;92.56
61035;BME280;46916;40.564;-7.958;2023-12-22T04:01:15;98578.44;;;8.20;92.60
61035;BME280;46916;40.564;-7.958;2023-12-22T04:03:15;98581.31;;;8.15;92.88
61035;BME280;46916;40.564;-7.958;2023-12-22T04:05:16;98579.53;;;8.16;92.88
61035;BME280;46916;40.564;-7.958;2023-12-22T04:07:17;98567.59;;;8.12;93.12
61035;BME280;46916;40.564;-7.958;2023-12-22T04:09:17;98573.47;;;8.15;92.76
61035;BME280;46916;40.564;-7.958;2023-12-22T04:11:18;98568.09;;;8.18;92.52
61035;BME280;46916;40.564;-7.958;2023-12-22T04:13:19;98567.09;;;8.21;92.25
61035;BME280;46916;40.564;-7.958;2023-12-22T04:15:19;98563.44;;;8.24;92.10
61035;BME280;46916;40.564;-7.958;2023-12-22T04:17:20;98566.81;;;8.26;91.79
61035;BME280;46916;40.564;-7.958;2023-12-22T04:19:21;98575.38;;;8.28;91.64
61035;BME280;46916;40.564;-7.958;2023-12-22T04:21:21;98566.72;;;8.27;91.19
61035;BME280;46916;40.564;-7.958;2023-12-22T04:23:22;98569.44;;;8.26;91.09
61035;BME280;46916;40.564;-7.958;2023-12-22T04:25:23;98566.97;;;8.23;90.78
61035;BME280;46916;40.564;-7.958;2023-12-22T04:27:25;98563.69;;;8.19;90.28
61035;BME280;46916;40.564;-7.958;2023-12-22T04:29:25;98565.63;;;8.15;89.91
61035;BME280;46916;40.564;-7.958;2023-12-22T04:31:26;98558.84;;;8.13;90.12
61035;BME280;46916;40.564;-7.958;2023-12-22T04:33:27;98560.78;;;8.09;90.47
61035;BME280;46916;40.564;-7.958;2023-12-22T04:35:27;98555.84;;;8.05;90.76
61035;BME280;46916;40.564;-7.958;2023-12-22T04:37:28;98555.91;;;8.03;91.14
61035;BME280;46916;40.564;-7.958;2023-12-22T04:39:29;98549.84;;;8.03;91.33
61035;BME280;46916;40.564;-7.958;2023-12-22T04:41:29;98544.56;;;8.04;91.39
61035;BME280;46916;40.564;-7.958;2023-12-22T04:43:30;98549.50;;;8.09;91.16
61035;BME280;46916;40.564;-7.958;2023-12-22T04:45:31;98554.91;;;8.06;90.71
61035;BME280;46916;40.564;-7.958;2023-12-22T04:47:31;98546.66;;;7.98;90.99
61035;BME280;46916;40.564;-7.958;2023-12-22T04:49:32;98554.59;;;7.96;90.88
61035;BME280;46916;40.564;-7.958;2023-12-22T04:51:33;98553.72;;;7.95;90.55
61035;BME280;46916;40.564;-7.958;2023-12-22T04:53:33;98558.19;;;7.93;89.96
61035;BME280;46916;40.564;-7.958;2023-12-22T04:55:34;98555.75;;;7.90;89.46
61035;BME280;46916;40.564;-7.958;2023-12-22T04:57:35;98553.56;;;7.83;89.16
61035;BME280;46916;40.564;-7.958;2023-12-22T04:59:36;98547.66;;;7.79;89.33
61035;BME280;46916;40.564;-7.958;2023-12-22T05:01:36;98547.94;;;7.75;89.58
61035;BME280;46916;40.564;-7.958;2023-12-22T05:03:37;98545.50;;;7.72;89.69
61035;BME280;46916;40.564;-7.958;2023-12-22T05:05:38;98543.13;;;7.67;90.17
61035;BME280;46916;40.564;-7.958;2023-12-22T05:07:38;98544.00;;;7.67;90.48
61035;BME280;46916;40.564;-7.958;2023-12-22T05:09:41;98539.63;;;7.68;90.13
61035;BME280;46916;40.564;-7.958;2023-12-22T05:11:42;98536.19;;;7.67;90.68
61035;BME280;46916;40.564;-7.958;2023-12-22T05:13:43;98525.66;;;7.69;90.40
61035;BME280;46916;40.564;-7.958;2023-12-22T05:15:45;98526.41;;;7.71;90.51
61035;BME280;46916;40.564;-7.958;2023-12-22T05:17:46;98529.69;;;7.75;89.95
61035;BME280;46916;40.564;-7.958;2023-12-22T05:19:46;98532.22;;;7.76;89.91
61035;BME280;46916;40.564;-7.958;2023-12-22T05:21:47;98525.28;;;7.75;89.72
61035;BME280;46916;40.564;-7.958;2023-12-22T05:23:50;98528.78;;;7.76;89.59
61035;BME280;46916;40.564;-7.958;2023-12-22T05:25:50;98531.38;;;7.76;89.30
61035;BME280;46916;40.564;-7.958;2023-12-22T05:27:51;98529.00;;;7.71;88.98
61035;BME280;46916;40.564;-7.958;2023-12-22T05:29:52;98515.47;;;7.64;89.09
61035;BME280;46916;40.564;-7.958;2023-12-22T05:31:53;98527.94;;;7.59;89.32
61035;BME280;46916;40.564;-7.958;2023-12-22T05:33:53;98515.91;;;7.57;89.94
61035;BME280;46916;40.564;-7.958;2023-12-22T05:35:54;98521.03;;;7.58;90.03
61035;BME280;46916;40.564;-7.958;2023-12-22T05:37:55;98514.66;;;7.64;90.06
61035;BME280;46916;40.564;-7.958;2023-12-22T05:39:56;98513.63;;;7.66;89.40
61035;BME280;46916;40.564;-7.958;2023-12-22T05:41:56;98511.63;;;7.72;89.07
61035;BME280;46916;40.564;-7.958;2023-12-22T05:43:58;98508.06;;;7.73;89.08
61035;BME280;46916;40.564;-7.958;2023-12-22T05:45:59;98509.75;;;7.74;88.59
61035;BME280;46916;40.564;-7.958;2023-12-22T05:48:00;98519.19;;;7.76;88.65
61035;BME280;46916;40.564;-7.958;2023-12-22T05:50:01;98514.03;;;7.75;88.44
61035;BME280;46916;40.564;-7.958;2023-12-22T05:52:02;98515.91;;;7.73;88.76
61035;BME280;46916;40.564;-7.958;2023-12-22T05:54:02;98515.91;;;7.73;88.63
61035;BME280;46916;40.564;-7.958;2023-12-22T05:56:04;98520.28;;;7.72;88.67
61035;BME280;46916;40.564;-7.958;2023-12-22T05:58:04;98520.34;;;7.70;89.03
61035;BME280;46916;40.564;-7.958;2023-12-22T06:00:06;98519.59;;;7.68;89.18
61035;BME280;46916;40.564;-7.958;2023-12-22T06:02:10;98524.97;;;7.65;88.88
61035;BME280;46916;40.564;-7.958;2023-12-22T06:04:11;98522.53;;;7.62;88.41
61035;BME280;46916;40.564;-7.958;2023-12-22T06:06:11;98519.19;;;7.60;87.71
61035;BME280;46916;40.564;-7.958;2023-12-22T06:08:12;98519.09;;;7.62;86.77
61035;BME280;46916;40.564;-7.958;2023-12-22T06:10:13;98519.09;;;7.62;86.44
61035;BME280;46916;40.564;-7.958;2023-12-22T06:12:14;98525.13;;;7.62;86.40
61035;BME280;46916;40.564;-7.958;2023-12-22T06:14:14;98532.06;;;7.63;86.16
61035;BME280;46916;40.564;-7.958;2023-12-22T06:16:15;98541.56;;;7.64;86.20
61035;BME280;46916;40.564;-7.958;2023-12-22T06:18:18;98542.50;;;7.63;86.07
61035;BME280;46916;40.564;-7.958;2023-12-22T06:20:21;98535.75;;;7.59;86.12
61035;BME280;46916;40.564;-7.958;2023-12-22T06:22:22;98534.00;;;7.60;85.91
61035;BME280;46916;40.564;-7.958;2023-12-22T06:24:23;98525.41;;;7.58;85.93
61035;BME280;46916;40.564;-7.958;2023-12-22T06:26:24;98526.50;;;7.54;85.91
61035;BME280;46916;40.564;-7.958;2023-12-22T06:28:25;98536.09;;;7.53;85.50
61035;BME280;46916;40.564;-7.958;2023-12-22T06:30:25;98536.25;;;7.50;84.94
61035;BME280;46916;40.564;-7.958;2023-12-22T06:32:27;98540.72;;;7.48;85.61
61035;BME280;46916;40.564;-7.958;2023-12-22T06:34:28;98540.72;;;7.48;85.34
61035;BME280;46916;40.564;-7.958;2023-12-22T06:36:28;98546.00;;;7.47;85.54
61035;BME280;46916;40.564;-7.958;2023-12-22T06:38:32;98547.16;;;7.41;85.08
61035;BME280;46916;40.564;-7.958;2023-12-22T06:40:34;98543.22;;;7.34;85.29
61035;BME280;46916;40.564;-7.958;2023-12-22T06:42:35;98544.13;;;7.33;85.07
61035;BME280;46916;40.564;-7.958;2023-12-22T06:44:35;98552.88;;;7.32;85.06
61035;BME280;46916;40.564;-7.958;2023-12-22T06:46:36;98544.22;;;7.31;85.37
61035;BME280;46916;40.564;-7.958;2023-12-22T06:48:37;98542.47;;;7.32;85.22
61035;BME280;46916;40.564;-7.958;2023-12-22T06:50:37;98551.88;;;7.34;84.99
61035;BME280;46916;40.564;-7.958;2023-12-22T06:52:39;98562.53;;;7.30;85.14
61035;BME280;46916;40.564;-7.958;2023-12-22T06:54:40;98565.22;;;7.28;84.88
61035;BME280;46916;40.564;-7.958;2023-12-22T06:56:41;98561.94;;;7.25;85.09
61035;BME280;46916;40.564;-7.958;2023-12-22T06:58:42;98563.97;;;7.19;85.13
61035;BME280;46916;40.564;-7.958;2023-12-22T07:00:42;98565.03;;;7.15;84.61
61035;BME280;46916;40.564;-7.958;2023-12-22T07:02:43;98556.00;;;7.05;84.32
61035;BME280;46916;40.564;-7.958;2023-12-22T07:07:23;98550.22;;;7.00;83.28
61035;BME280;46916;40.564;-7.958;2023-12-22T07:11:25;98553.81;;;6.98;82.86
61035;BME280;46916;40.564;-7.958;2023-12-22T07:13:25;98562.31;;;7.01;81.59
61035;BME280;46916;40.564;-7.958;2023-12-22T07:15:27;98564.31;;;6.96;82.12
61035;BME280;46916;40.564;-7.958;2023-12-22T07:17:28;98573.06;;;6.95;82.13
61035;BME280;46916;40.564;-7.958;2023-12-22T07:19:29;98571.44;;;6.92;82.13
61035;BME280;46916;40.564;-7.958;2023-12-22T07:21:30;98571.38;;;6.94;81.88
61035;BME280;46916;40.564;-7.958;2023-12-22T07:23:31;98572.47;;;6.90;82.12
61035;BME280;46916;40.564;-7.958;2023-12-22T07:25:36;98571.59;;;6.89;81.94
61035;BME280;46916;40.564;-7.958;2023-12-22T07:27:38;98573.34;;;6.89;82.04
61035;BME280;46916;40.564;-7.958;2023-12-22T07:29:39;98567.06;;;6.93;81.63
61035;BME280;46916;40.564;-7.958;2023-12-22T07:31:40;98570.59;;;6.92;81.46
61035;BME280;46916;40.564;-7.958;2023-12-22T07:33:41;98568.16;;;6.89;81.80
61035;BME280;46916;40.564;-7.958;2023-12-22T07:35:41;98576.81;;;6.89;82.02
61035;BME280;46916;40.564;-7.958;2023-12-22T07:37:42;98582.19;;;6.86;82.25
61035;BME280;46916;40.564;-7.958;2023-12-22T07:39:43;98582.88;;;6.90;81.76
61035;BME280;46916;40.564;-7.958;2023-12-22T07:41:45;98585.69;;;6.85;81.69
61035;BME280;46916;40.564;-7.958;2023-12-22T07:43:46;98587.69;;;6.80;82.33
61035;BME280;46916;40.564;-7.958;2023-12-22T07:45:47;98591.78;;;6.86;82.46
61035;BME280;46916;40.564;-7.958;2023-12-22T07:47:48;98596.75;;;6.90;82.13
61035;BME280;46916;40.564;-7.958;2023-12-22T07:49:49;98595.97;;;6.88;81.90
61035;BME280;46916;40.564;-7.958;2023-12-22T07:51:51;98607.69;;;6.80;82.67
61035;BME280;46916;40.564;-7.958;2023-12-22T07:53:52;98601.09;;;6.90;82.37
61035;BME280;46916;40.564;-7.958;2023-12-22T07:55:53;98602.19;;;6.86;82.99
61035;BME280;46916;40.564;-7.958;2023-12-22T07:57:54;98604.00;;;6.84;83.07
61035;BME280;46916;40.564;-7.958;2023-12-22T07:59:54;98602.56;;;6.78;83.84
61035;BME280;46916;40.564;-7.958;2023-12-22T08:01:56;98596.66;;;6.75;83.84
61035;BME280;46916;40.564;-7.958;2023-12-22T08:03:57;98607.16;;;6.73;83.74
61035;BME280;46916;40.564;-7.958;2023-12-22T08:05:58;98608.66;;;6.77;84.03
61035;BME280;46916;40.564;-7.958;2023-12-22T08:07:59;98608.06;;;6.89;84.00
61035;BME280;46916;40.564;-7.958;2023-12-22T08:09:59;98616.66;;;6.91;83.20
61035;BME280;46916;40.564;-7.958;2023-12-22T08:12:02;98631.28;;;6.94;83.30
61035;BME280;46916;40.564;-7.958;2023-12-22T08:14:02;98627.75;;;6.95;83.28
61035;BME280;46916;40.564;-7.958;2023-12-22T08:16:03;98630.28;;;6.97;83.41
61035;BME280;46916;40.564;-7.958;2023-12-22T08:18:05;98637.84;;;7.01;82.63
61035;BME280;46916;40.564;-7.958;2023-12-22T08:20:06;98640.91;;;7.09;82.43
61035;BME280;46916;40.564;-7.958;2023-12-22T08:22:12;98641.59;;;7.13;82.19
61035;BME280;46916;40.564;-7.958;2023-12-22T08:24:15;98648.13;;;7.04;83.02
61035;BME280;46916;40.564;-7.958;2023-12-22T08:26:17;98649.34;;;6.97;83.19
61035;BME280;46916;40.564;-7.958;2023-12-22T08:28:19;98653.03;;;6.93;83.71
61035;BME280;46916;40.564;-7.958;2023-12-22T08:30:20;98660.31;;;6.86;84.38
61035;BME280;46916;40.564;-7.958;2023-12-22T08:32:21;98667.91;;;6.91;84.93
61035;BME280;46916;40.564;-7.958;2023-12-22T08:34:22;98670.34;;;6.94;85.18
61035;BME280;46916;40.564;-7.958;2023-12-22T08:36:22;98673.78;;;6.94;85.32
61035;BME280;46916;40.564;-7.958;2023-12-22T08:38:23;98671.47;;;7.06;84.82
61035;BME280;46916;40.564;-7.958;2023-12-22T08:40:24;98674.94;;;7.06;85.08
61035;BME280;46916;40.564;-7.958;2023-12-22T08:42:28;98679.59;;;7.17;84.91
61035;BME280;46916;40.564;-7.958;2023-12-22T08:44:30;98668.53;;;7.29;84.14
61035;BME280;46916;40.564;-7.958;2023-12-22T08:46:31;98671.53;;;7.39;84.18
61035;BME280;46916;40.564;-7.958;2023-12-22T08:48:32;98683.94;;;7.51;83.78
61035;BME280;46916;40.564;-7.958;2023-12-22T08:50:32;98680.41;;;7.52;83.18
61035;BME280;46916;40.564;-7.958;2023-12-22T08:52:33;98680.25;;;7.55;82.54
61035;BME280;46916;40.564;-7.958;2023-12-22T08:54:34;98675.88;;;7.56;82.54
61035;BME280;46916;40.564;-7.958;2023-12-22T08:56:35;98668.94;;;7.55;82.57
61035;BME280;46916;40.564;-7.958;2023-12-22T08:58:36;98667.78;;;7.60;82.39
61035;BME280;46916;40.564;-7.958;2023-12-22T09:00:36;98664.19;;;7.79;80.88
61035;BME280;46916;40.564;-7.958;2023-12-22T09:02:37;98660.88;;;7.92;79.84
61035;BME280;46916;40.564;-7.958;2023-12-22T09:04:38;98655.66;;;8.08;79.46
61035;BME280;46916;40.564;-7.958;2023-12-22T09:06:39;98657.59;;;8.21;78.48
61035;BME280;46916;40.564;-7.958;2023-12-22T09:08:39;98653.53;;;8.31;78.16
61035;BME280;46916;40.564;-7.958;2023-12-22T09:10:40;98645.13;;;8.41;77.07
61035;BME280;46916;40.564;-7.958;2023-12-22T09:12:41;98656.97;;;8.47;76.68
61035;BME280;46916;40.564;-7.958;2023-12-22T09:14:42;98647.88;;;8.54;76.24
61035;BME280;46916;40.564;-7.958;2023-12-22T09:16:43;98651.56;;;8.66;76.60
61035;BME280;46916;40.564;-7.958;2023-12-22T09:18:45;98647.41;;;8.78;75.21
61035;BME280;46916;40.564;-7.958;2023-12-22T09:20:46;98648.25;;;8.78;75.04
61035;BME280;46916;40.564;-7.958;2023-12-22T09:22:47;98655.66;;;8.86;75.15
61035;BME280;46916;40.564;-7.958;2023-12-22T09:24:48;98645.84;;;8.89;74.60
61035;BME280;46916;40.564;-7.958;2023-12-22T09:26:49;98641.94;;;8.97;74.27
61035;BME280;46916;40.564;-7.958;2023-12-22T09:28:51;98644.09;;;9.04;73.93
61035;BME280;46916;40.564;-7.958;2023-12-22T09:30:52;98640.03;;;9.14;73.22
61035;BME280;46916;40.564;-7.958;2023-12-22T09:32:53;98641.53;;;9.18;72.63
61035;BME280;46916;40.564;-7.958;2023-12-22T09:34:53;98639.47;;;9.24;72.42
61035;BME280;46916;40.564;-7.958;2023-12-22T09:36:57;98646.19;;;9.28;72.22
61035;BME280;46916;40.564;-7.958;2023-12-22T09:38:58;98636.56;;;9.28;72.19
61035;BME280;46916;40.564;-7.958;2023-12-22T09:41:00;98639.09;;;9.30;72.39
61035;BME280;46916;40.564;-7.958;2023-12-22T09:43:01;98638.44;;;9.40;72.14
61035;BME280;46916;40.564;-7.958;2023-12-22T09:45:03;98640.50;;;9.50;72.28
61035;BME280;46916;40.564;-7.958;2023-12-22T09:47:06;98642.91;;;9.67;71.42
61035;BME280;46916;40.564;-7.958;2023-12-22T09:49:07;98650.13;;;9.78;70.71
61035;BME280;46916;40.564;-7.958;2023-12-22T09:51:11;98646.19;;;9.85;70.39
61035;BME280;46916;40.564;-7.958;2023-12-22T09:53:13;98654.22;;;9.96;70.11
61035;BME280;46916;40.564;-7.958;2023-12-22T09:55:14;98653.63;;;10.05;70.04
61035;BME280;46916;40.564;-7.958;2023-12-22T09:57:15;98660.16;;;10.12;69.92
61035;BME280;46916;40.564;-7.958;2023-12-22T09:59:17;98662.91;;;10.24;70.81
61035;BME280;46916;40.564;-7.958;2023-12-22T10:01:19;98676.25;;;10.48;70.91
61035;BME280;46916;40.564;-7.958;2023-12-22T10:03:24;98680.09;;;10.69;69.72
61035;BME280;46916;40.564;-7.958;2023-12-22T10:05:26;98682.56;;;10.85;69.13
61035;BME280;46916;40.564;-7.958;2023-12-22T10:07:28;98681.88;;;10.96;68.39
61035;BME280;46916;40.564;-7.958;2023-12-22T10:09:29;98683.03;;;11.04;68.14
61035;BME280;46916;40.564;-7.958;2023-12-22T10:11:32;98680.53;;;11.15;69.29
61035;BME280;46916;40.564;-7.958;2023-12-22T10:13:36;98683.81;;;11.32;69.06
61035;BME280;46916;40.564;-7.958;2023-12-22T10:15:40;98694.94;;;11.48;69.30
61035;BME280;46916;40.564;-7.958;2023-12-22T10:17:41;98682.34;;;11.66;68.53
61035;BME280;46916;40.564;-7.958;2023-12-22T10:19:42;98677.81;;;11.81;68.18
61035;BME280;46916;40.564;-7.958;2023-12-22T10:21:43;98677.41;;;11.87;66.13
61035;BME280;46916;40.564;-7.958;2023-12-22T10:23:44;98669.53;;;11.87;66.25
61035;BME280;46916;40.564;-7.958;2023-12-22T10:25:45;98674.44;;;11.92;66.26
61035;BME280;46916;40.564;-7.958;2023-12-22T10:27:46;98668.03;;;11.96;66.30
61035;BME280;46916;40.564;-7.958;2023-12-22T10:29:53;98664.25;;;12.00;65.80
61035;BME280;46916;40.564;-7.958;2023-12-22T10:31:54;98674.66;;;12.01;65.85
61035;BME280;46916;40.564;-7.958;2023-12-22T10:33:55;98671.19;;;12.01;66.31
61035;BME280;46916;40.564;-7.958;2023-12-22T10:35:56;98670.25;;;12.02;66.20
61035;BME280;46916;40.564;-7.958;2023-12-22T10:37:56;98671.19;;;12.01;67.02
61035;BME280;46916;40.564;-7.958;2023-12-22T10:39:58;98668.97;;;12.07;67.00
61035;BME280;46916;40.564;-7.958;2023-12-22T10:42:00;98681.75;;;12.12;67.50
61035;BME280;46916;40.564;-7.958;2023-12-22T10:44:00;98676.41;;;12.13;67.35
61035;BME280;46916;40.564;-7.958;2023-12-22T10:46:01;98674.28;;;12.19;67.62
61035;BME280;46916;40.564;-7.958;2023-12-22T10:48:03;98678.16;;;12.26;66.50
61035;BME280;46916;40.564;-7.958;2023-12-22T10:50:05;98679.00;;;12.26;66.92
61035;BME280;46916;40.564;-7.958;2023-12-22T10:52:11;98676.34;;;12.39;66.72
61035;BME280;46916;40.564;-7.958;2023-12-22T10:54:16;98675.09;;;12.32;67.29